Time;durP1;ratioP1;P1;durP2;ratioP2;P2;SDS_P1;SDS_P2;PMS_P1;PMS_P2;Temp;Humidity;BMP_temperature;BMP_pressure;BME280_temperature;BME280_humidity;BME280_pressure;Samples;Min_cycle;Max_cycle;Signal;HPM_P1;HPM_P2
2022/01/31 00:01:19;;;;;;;1.20;1.00;;;1.30;98.00;;;;;;5074109;28;20495;-67
2022/01/31 00:03:46;;;;;;;1.50;1.40;;;1.30;98.00;;;;;;5073868;28;20957;-67
2022/01/31 00:06:14;;;;;;;1.20;1.10;;;1.20;98.00;;;;;;5073373;28;20576;-68
2022/01/31 00:08:42;;;;;;;1.20;1.20;;;1.30;98.00;;;;;;5073161;28;20480;-67
2022/01/31 00:11:10;;;;;;;1.10;1.00;;;1.20;98.00;;;;;;5073534;28;20957;-68
2022/01/31 00:13:41;;;;;;;1.40;1.33;;;1.20;98.00;;;;;;5073157;28;20488;-67
2022/01/31 00:16:13;;;;;;;1.30;1.20;;;1.10;98.00;;;;;;5073531;28;20526;-68
2022/01/31 00:18:40;;;;;;;1.20;1.00;;;1.30;98.00;;;;;;5073367;28;20976;-68
2022/01/31 00:21:08;;;;;;;1.30;1.30;;;1.40;98.00;;;;;;5073330;28;20467;-67
2022/01/31 00:23:37;;;;;;;1.13;1.10;;;1.30;98.00;;;;;;5073267;28;20498;-68
2022/01/31 00:26:04;;;;;;;2.03;1.90;;;1.30;98.00;;;;;;5073158;28;20575;-68
2022/01/31 00:28:31;;;;;;;1.87;1.30;;;1.30;98.00;;;;;;5073280;28;20896;-67
2022/01/31 00:30:58;;;;;;;1.87;1.53;;;1.30;98.00;;;;;;5073172;28;20492;-67
2022/01/31 00:33:25;;;;;;;1.33;1.20;;;1.50;98.00;;;;;;5073127;28;20480;-68
2022/01/31 00:35:52;;;;;;;1.10;0.90;;;1.40;98.00;;;;;;5073224;28;20456;-67
2022/01/31 00:38:19;;;;;;;1.10;1.00;;;1.40;98.00;;;;;;5072943;28;20538;-67
2022/01/31 00:40:48;;;;;;;1.53;1.37;;;1.40;98.00;;;;;;5073073;28;20517;-67
2022/01/31 00:43:17;;;;;;;1.27;1.20;;;1.50;98.00;;;;;;5072982;28;20492;-67
2022/01/31 00:45:54;;;;;;;1.30;1.20;;;1.50;98.00;;;;;;5072921;28;20488;-67
2022/01/31 00:48:25;;;;;;;1.30;1.00;;;1.50;98.00;;;;;;5056818;28;20456;-67
2022/01/31 00:50:52;;;;;;;1.57;1.47;;;1.40;98.00;;;;;;5072929;28;20478;-68
2022/01/31 00:53:19;;;;;;;1.60;1.50;;;1.60;98.00;;;;;;5072499;28;20496;-67
2022/01/31 00:55:47;;;;;;;1.10;1.00;;;1.80;98.00;;;;;;5072768;28;20468;-67
2022/01/31 00:58:14;;;;;;;1.20;1.10;;;1.90;98.00;;;;;;5072728;28;20558;-68
2022/01/31 01:00:41;;;;;;;1.50;1.40;;;1.90;98.00;;;;;;5072701;28;20457;-67
2022/01/31 01:03:08;;;;;;;1.50;1.23;;;2.00;98.00;;;;;;5072528;28;20549;-67
2022/01/31 01:05:36;;;;;;;1.10;1.03;;;1.90;98.00;;;;;;5055070;28;20987;-67
2022/01/31 01:08:03;;;;;;;1.10;1.00;;;1.90;98.00;;;;;;5072400;28;20517;-67
2022/01/31 01:10:30;;;;;;;1.20;1.10;;;2.00;98.00;;;;;;5072707;28;20902;-67
2022/01/31 01:12:59;;;;;;;1.20;1.10;;;1.80;98.00;;;;;;5072321;28;20488;-67
2022/01/31 01:15:26;;;;;;;1.10;0.90;;;1.70;98.00;;;;;;5072439;28;21020;-67
2022/01/31 01:17:53;;;;;;;1.10;1.00;;;1.60;98.00;;;;;;5072628;28;20472;-67
2022/01/31 01:20:20;;;;;;;1.10;1.00;;;1.70;98.00;;;;;;5071866;28;20517;-67
2022/01/31 01:22:47;;;;;;;1.40;1.33;;;1.80;98.00;;;;;;5072363;28;20502;-67
2022/01/31 01:25:19;;;;;;;1.30;1.10;;;1.90;98.00;;;;;;5072161;28;21164;-67
2022/01/31 01:27:50;;;;;;;5.53;1.60;;;2.00;98.00;;;;;;5071973;28;20506;-67
2022/01/31 01:30:18;;;;;;;1.10;1.00;;;2.00;98.00;;;;;;5071965;28;20939;-68
2022/01/31 01:33:00;;;;;;;1.10;1.00;;;2.10;98.00;;;;;;5072143;28;20508;-67
2022/01/31 01:35:32;;;;;;;1.50;1.30;;;2.30;98.00;;;;;;5072034;28;20459;-67
2022/01/31 01:38:05;;;;;;;4.83;2.00;;;2.20;98.00;;;;;;5054384;28;20543;-67
2022/01/31 01:40:32;;;;;;;1.10;1.10;;;2.20;98.00;;;;;;5071965;28;21015;-67
2022/01/31 01:42:59;;;;;;;2.57;1.67;;;2.20;98.00;;;;;;5071930;28;20477;-67
2022/01/31 01:45:27;;;;;;;1.10;1.00;;;2.30;98.00;;;;;;5072008;28;20546;-67
2022/01/31 01:47:54;;;;;;;1.10;1.10;;;2.20;98.00;;;;;;5071700;28;20528;-67
2022/01/31 01:50:21;;;;;;;1.10;1.10;;;2.20;98.00;;;;;;5071972;28;20491;-66
2022/01/31 01:52:50;;;;;;;1.10;0.93;;;2.20;98.00;;;;;;5071585;28;21044;-67
2022/01/31 01:55:17;;;;;;;1.50;1.40;;;2.20;98.00;;;;;;5071578;28;20530;-68
2022/01/31 01:57:46;;;;;;;1.20;1.20;;;2.10;98.00;;;;;;5071737;28;20470;-67
2022/01/31 02:00:23;;;;;;;1.20;1.10;;;2.40;98.00;;;;;;5071864;28;21303;-67
2022/01/31 02:02:52;;;;;;;1.23;1.17;;;2.40;98.00;;;;;;5071634;28;20459;-67
2022/01/31 02:05:19;;;;;;;1.60;1.33;;;2.40;98.00;;;;;;5071705;28;20484;-67
2022/01/31 02:07:47;;;;;;;2.07;1.80;;;2.30;98.00;;;;;;5071385;28;20551;-67
2022/01/31 02:10:15;;;;;;;1.80;1.13;;;2.30;98.00;;;;;;5071766;28;20491;-67
2022/01/31 02:12:43;;;;;;;1.10;1.00;;;2.30;98.00;;;;;;5071530;28;20958;-67
2022/01/31 02:15:12;;;;;;;1.10;1.00;;;2.50;98.00;;;;;;5071704;28;20452;-67
2022/01/31 02:17:40;;;;;;;1.40;1.30;;;2.70;98.00;;;;;;5071527;28;20546;-67
2022/01/31 02:20:10;;;;;;;1.60;1.30;;;2.70;98.00;;;;;;5071766;28;20532;-67
2022/01/31 02:22:39;;;;;;;1.40;1.30;;;2.70;98.00;;;;;;5071540;28;20480;-68
2022/01/31 02:25:07;;;;;;;1.50;1.47;;;2.50;98.00;;;;;;5071497;28;20488;-67
2022/01/31 02:27:37;;;;;;;1.10;1.00;;;2.50;98.00;;;;;;5070864;28;20487;-67
2022/01/31 02:30:08;;;;;;;1.20;1.17;;;2.50;98.00;;;;;;5071850;28;20460;-67
2022/01/31 02:32:36;;;;;;;1.30;1.17;;;2.50;98.00;;;;;;5075883;28;20467;-67
2022/01/31 02:35:05;;;;;;;1.20;1.00;;;2.60;98.00;;;;;;5075653;28;20558;-67
2022/01/31 02:37:33;;;;;;;1.40;1.30;;;2.50;98.00;;;;;;5075663;28;20483;-67
2022/01/31 02:40:01;;;;;;;1.70;1.60;;;2.50;98.00;;;;;;5075623;28;20502;-67
2022/01/31 02:42:29;;;;;;;1.10;1.00;;;2.40;98.00;;;;;;5075445;28;20524;-68
2022/01/31 02:44:56;;;;;;;1.73;1.63;;;2.50;98.00;;;;;;5075100;28;20459;-67
2022/01/31 02:47:25;;;;;;;1.20;1.10;;;2.50;98.00;;;;;;5075021;28;20518;-67
2022/01/31 02:49:56;;;;;;;1.10;1.00;;;2.60;98.00;;;;;;5075069;28;20495;-68
2022/01/31 02:52:25;;;;;;;2.23;1.20;;;2.60;98.00;;;;;;5074749;28;20455;-67
2022/01/31 02:54:52;;;;;;;1.10;1.00;;;2.60;98.00;;;;;;5075069;28;20452;-67
2022/01/31 02:57:20;;;;;;;1.10;1.00;;;2.40;98.00;;;;;;5074850;28;20487;-68
2022/01/31 02:59:48;;;;;;;1.13;1.13;;;2.40;98.00;;;;;;5074886;28;20867;-67
2022/01/31 03:02:15;;;;;;;1.30;1.20;;;2.50;98.00;;;;;;5074653;28;20529;-67
2022/01/31 03:04:42;;;;;;;1.10;1.00;;;2.60;98.00;;;;;;5074944;28;20885;-67
2022/01/31 03:07:17;;;;;;;1.20;1.13;;;2.70;98.00;;;;;;5074495;28;21094;-66
2022/01/31 03:09:44;;;;;;;1.40;1.30;;;2.90;98.00;;;;;;5074684;28;20549;-67
2022/01/31 03:12:13;;;;;;;1.20;1.10;;;3.00;98.00;;;;;;5074583;28;20985;-67
2022/01/31 03:14:42;;;;;;;1.10;1.00;;;3.00;98.00;;;;;;5074719;28;20555;-67
2022/01/31 03:17:10;;;;;;;1.30;1.10;;;3.10;98.00;;;;;;5074354;28;20458;-67
2022/01/31 03:19:38;;;;;;;1.10;1.00;;;3.20;98.00;;;;;;5074587;28;20540;-67
2022/01/31 03:22:06;;;;;;;1.10;1.00;;;3.20;98.00;;;;;;5074554;28;20456;-67
2022/01/31 03:24:33;;;;;;;1.50;1.30;;;3.30;98.00;;;;;;5074288;28;20474;-68
2022/01/31 03:27:00;;;;;;;1.80;1.70;;;3.20;98.00;;;;;;5055922;28;20487;-68
2022/01/31 03:29:29;;;;;;;1.10;1.00;;;3.20;98.00;;;;;;5073681;28;20548;-67
2022/01/31 03:31:57;;;;;;;2.03;1.53;;;3.20;98.00;;;;;;5074064;28;20455;-67
2022/01/31 03:34:25;;;;;;;1.10;1.00;;;3.20;98.00;;;;;;5074369;28;20484;-67
2022/01/31 03:36:52;;;;;;;1.10;1.10;;;3.30;98.00;;;;;;5074393;28;20551;-67
2022/01/31 03:39:20;;;;;;;1.10;1.00;;;3.40;98.00;;;;;;5074394;28;20460;-67
2022/01/31 03:41:47;;;;;;;1.20;1.13;;;3.40;98.00;;;;;;5055798;28;20481;-67
2022/01/31 03:44:14;;;;;;;1.10;0.97;;;3.40;98.00;;;;;;5056343;28;20492;-68
2022/01/31 03:46:41;;;;;;;1.10;1.00;;;3.40;98.00;;;;;;5074178;28;20520;-67
2022/01/31 03:49:11;;;;;;;1.10;1.03;;;3.40;98.00;;;;;;5074251;28;20493;-68
2022/01/31 03:51:38;;;;;;;1.10;1.00;;;3.50;98.00;;;;;;5074175;28;20534;-67
2022/01/31 03:54:05;;;;;;;1.10;1.10;;;3.40;98.00;;;;;;5073875;28;20489;-67
2022/01/31 03:56:35;;;;;;;1.20;1.10;;;3.40;98.00;;;;;;5074169;28;20514;-67
2022/01/31 03:59:04;;;;;;;1.10;0.90;;;3.40;98.00;;;;;;5074053;28;20464;-67
2022/01/31 04:01:31;;;;;;;1.90;1.30;;;3.30;98.00;;;;;;5074092;28;20460;-67
2022/01/31 04:03:58;;;;;;;2.17;1.80;;;3.30;98.00;;;;;;5074031;28;21199;-67
2022/01/31 04:06:28;;;;;;;2.33;2.13;;;3.30;98.00;;;;;;5073798;28;20488;-68
2022/01/31 04:08:55;;;;;;;1.10;1.10;;;3.30;98.00;;;;;;5073612;28;20849;-67
2022/01/31 04:11:22;;;;;;;1.20;1.10;;;3.40;98.00;;;;;;5074098;28;20459;-68
2022/01/31 04:13:49;;;;;;;1.20;1.13;;;3.40;98.00;;;;;;5073843;28;20507;-68
2022/01/31 04:16:16;;;;;;;1.33;1.27;;;3.40;98.00;;;;;;5073777;28;21078;-68
2022/01/31 04:18:43;;;;;;;2.33;2.20;;;3.40;98.00;;;;;;5073205;28;20496;-67
2022/01/31 04:21:10;;;;;;;1.10;1.00;;;3.50;98.00;;;;;;5073216;28;20452;-67
2022/01/31 04:23:38;;;;;;;1.10;1.00;;;3.50;98.00;;;;;;5072900;28;20958;-67
2022/01/31 04:26:11;;;;;;;2.90;2.13;;;3.50;98.00;;;;;;5073424;28;20484;-67
2022/01/31 04:28:43;;;;;;;1.77;1.77;;;3.50;98.00;;;;;;5073109;28;20491;-67
2022/01/31 04:31:26;;;;;;;1.10;1.00;;;3.60;98.00;;;;;;5073155;28;20452;-66
2022/01/31 04:33:54;;;;;;;1.10;1.10;;;3.50;98.00;;;;;;5072964;28;20510;-67
2022/01/31 04:36:22;;;;;;;1.50;1.17;;;3.50;98.00;;;;;;5073001;28;20534;-67
2022/01/31 04:38:51;;;;;;;1.20;1.10;;;3.50;98.00;;;;;;5073022;28;20468;-67
2022/01/31 04:41:20;;;;;;;1.10;0.90;;;3.50;98.00;;;;;;5073039;28;20468;-67
2022/01/31 04:43:51;;;;;;;1.10;1.00;;;3.50;98.00;;;;;;5072899;28;20585;-67
2022/01/31 04:46:19;;;;;;;1.20;1.13;;;3.60;98.00;;;;;;5072715;28;20488;-67
2022/01/31 04:48:46;;;;;;;1.30;1.20;;;3.60;98.00;;;;;;5055416;28;20466;-67
2022/01/31 04:51:14;;;;;;;1.10;1.00;;;3.60;98.00;;;;;;5072921;28;20492;-67
2022/01/31 04:53:41;;;;;;;1.27;1.20;;;3.70;98.00;;;;;;5054361;28;20552;-67
2022/01/31 04:56:10;;;;;;;1.20;1.10;;;3.70;98.00;;;;;;5072765;28;20456;-68
2022/01/31 04:58:37;;;;;;;1.57;1.07;;;3.70;98.00;;;;;;5072622;28;20560;-67
2022/01/31 05:01:05;;;;;;;2.07;1.70;;;3.70;98.00;;;;;;5055091;28;20449;-67
2022/01/31 05:03:33;;;;;;;1.10;1.07;;;3.80;98.00;;;;;;5072497;28;20456;-67
2022/01/31 05:06:00;;;;;;;2.13;1.57;;;3.80;98.00;;;;;;5072425;28;21093;-67
2022/01/31 05:08:29;;;;;;;1.93;1.43;;;3.80;98.00;;;;;;5072401;28;20499;-67
2022/01/31 05:10:58;;;;;;;1.30;1.10;;;3.80;98.00;;;;;;5072339;28;20461;-66
2022/01/31 05:13:26;;;;;;;1.10;1.10;;;3.80;98.00;;;;;;5054672;28;20457;-67
2022/01/31 05:15:55;;;;;;;1.53;1.43;;;3.80;98.00;;;;;;5072445;28;20452;-67
2022/01/31 05:18:22;;;;;;;1.10;1.03;;;3.80;98.00;;;;;;5072305;28;20458;-68
2022/01/31 05:20:49;;;;;;;1.40;1.30;;;3.80;98.00;;;;;;5072420;28;20588;-67
2022/01/31 05:23:16;;;;;;;1.30;1.20;;;3.90;98.00;;;;;;5072207;28;20496;-68
2022/01/31 05:25:43;;;;;;;1.10;1.00;;;3.90;98.00;;;;;;5072395;28;20999;-66
2022/01/31 05:28:10;;;;;;;1.30;1.10;;;3.80;98.00;;;;;;5071978;28;20523;-68
2022/01/31 05:30:40;;;;;;;1.20;1.10;;;3.90;98.00;;;;;;5072519;28;20927;-67
2022/01/31 05:33:07;;;;;;;2.80;1.73;;;3.80;98.00;;;;;;5072342;28;20460;-67
2022/01/31 05:35:34;;;;;;;1.10;1.00;;;3.90;98.00;;;;;;5072269;28;20453;-68
2022/01/31 05:38:01;;;;;;;1.10;1.00;;;3.90;98.00;;;;;;5072483;28;20490;-67
2022/01/31 05:40:29;;;;;;;1.10;1.10;;;3.90;98.00;;;;;;5054357;28;20495;-67
2022/01/31 05:42:56;;;;;;;1.10;1.00;;;3.90;98.00;;;;;;5054644;28;20824;-67
2022/01/31 05:45:24;;;;;;;3.00;2.87;;;3.90;98.00;;;;;;5071967;28;20502;-67
2022/01/31 05:47:55;;;;;;;1.20;1.10;;;3.90;98.00;;;;;;5054070;28;20524;-67
2022/01/31 05:50:22;;;;;;;1.10;1.00;;;3.90;98.00;;;;;;5071845;28;20510;-67
2022/01/31 05:52:49;;;;;;;1.30;1.20;;;3.90;98.00;;;;;;5071553;28;20567;-68
2022/01/31 05:55:16;;;;;;;3.10;1.53;;;3.90;98.00;;;;;;5071813;28;20491;-66
2022/01/31 05:57:43;;;;;;;1.80;1.63;;;3.90;98.00;;;;;;5071613;28;20485;-67
2022/01/31 06:00:12;;;;;;;1.73;1.20;;;3.90;98.00;;;;;;5071581;28;20502;-67
2022/01/31 06:02:40;;;;;;;1.30;1.20;;;3.90;98.00;;;;;;5071727;28;20535;-66
2022/01/31 06:05:09;;;;;;;3.10;2.30;;;4.00;98.00;;;;;;5071194;28;20453;-67
2022/01/31 06:07:36;;;;;;;1.10;1.00;;;4.00;98.00;;;;;;5071195;28;20486;-67
2022/01/31 06:10:05;;;;;;;1.30;1.30;;;4.10;98.00;;;;;;5071688;28;20928;-67
2022/01/31 06:12:32;;;;;;;1.10;1.00;;;4.10;98.00;;;;;;5071543;28;20460;-66
2022/01/31 06:14:59;;;;;;;3.73;2.00;;;4.10;98.00;;;;;;5071582;28;20487;-68
2022/01/31 06:17:26;;;;;;;1.50;1.20;;;4.10;98.00;;;;;;5071461;28;20457;-67
2022/01/31 06:19:53;;;;;;;1.30;1.10;;;4.10;98.00;;;;;;5071089;28;21088;-67
2022/01/31 06:22:23;;;;;;;2.00;1.80;;;4.10;98.00;;;;;;5071013;28;20910;-67
2022/01/31 06:24:51;;;;;;;1.10;1.10;;;4.10;98.00;;;;;;5071002;28;20452;-67
2022/01/31 06:27:18;;;;;;;1.77;1.30;;;4.10;98.00;;;;;;5071279;28;20521;-67
2022/01/31 06:29:47;;;;;;;1.10;1.00;;;4.10;98.00;;;;;;5071361;28;20951;-66
2022/01/31 06:32:14;;;;;;;1.20;1.20;;;4.10;98.00;;;;;;5053902;28;20961;-67
2022/01/31 06:34:41;;;;;;;1.10;1.00;;;4.10;98.00;;;;;;5071321;28;20496;-67
2022/01/31 06:37:11;;;;;;;1.40;1.17;;;4.00;98.00;;;;;;5071308;28;21005;-66
2022/01/31 06:39:39;;;;;;;2.50;1.40;;;4.00;98.00;;;;;;5071486;28;20546;-67
2022/01/31 06:42:07;;;;;;;1.10;0.90;;;3.90;98.00;;;;;;5071733;28;20538;-68
2022/01/31 06:44:36;;;;;;;1.20;1.10;;;3.90;98.00;;;;;;5071295;28;20468;-68
2022/01/31 06:47:04;;;;;;;1.10;1.00;;;3.90;98.00;;;;;;5071436;28;20570;-67
2022/01/31 06:49:31;;;;;;;1.10;1.00;;;3.90;98.00;;;;;;5053520;28;20544;-67
2022/01/31 06:51:58;;;;;;;1.10;1.00;;;3.80;98.00;;;;;;5071361;28;20456;-67
2022/01/31 06:54:25;;;;;;;1.40;1.30;;;3.80;98.00;;;;;;5053624;28;20508;-67
2022/01/31 06:56:56;;;;;;;1.10;1.00;;;3.90;98.00;;;;;;5071457;28;20499;-67
2022/01/31 06:59:23;;;;;;;1.10;1.00;;;3.80;98.00;;;;;;5071117;28;20465;-67
2022/01/31 07:01:50;;;;;;;1.10;1.00;;;3.80;98.00;;;;;;5053526;28;20523;-68
2022/01/31 07:04:17;;;;;;;1.10;1.10;;;3.80;98.00;;;;;;5070960;28;20468;-67
2022/01/31 07:06:45;;;;;;;1.10;1.00;;;3.80;98.00;;;;;;5070807;28;21017;-68
2022/01/31 07:09:12;;;;;;;1.10;1.00;;;3.80;98.00;;;;;;5070582;28;20452;-68
2022/01/31 07:11:41;;;;;;;1.10;1.00;;;3.80;98.00;;;;;;5071090;28;20550;-68
2022/01/31 07:14:29;;;;;;;1.30;1.20;;;3.80;98.00;;;;;;5070436;28;20467;-68
2022/01/31 07:16:57;;;;;;;1.10;1.10;;;3.80;98.00;;;;;;5072999;28;20476;-68
2022/01/31 07:19:27;;;;;;;1.10;0.90;;;3.80;98.00;;;;;;5074374;28;20561;-67
2022/01/31 07:21:55;;;;;;;1.10;1.00;;;3.80;98.00;;;;;;5040850;28;20537;-68
2022/01/31 07:24:29;;;;;;;1.47;1.47;;;3.80;98.00;;;;;;5074529;28;20521;-67
2022/01/31 07:26:56;;;;;;;1.30;1.20;;;3.70;98.00;;;;;;5074111;28;20578;-68
2022/01/31 07:29:25;;;;;;;1.10;1.00;;;3.70;98.00;;;;;;5074347;28;20543;-67
2022/01/31 07:31:52;;;;;;;1.10;1.00;;;3.80;98.00;;;;;;5074511;28;20495;-68
2022/01/31 07:34:20;;;;;;;2.07;1.20;;;3.90;98.00;;;;;;5074326;28;20528;-68
2022/01/31 07:36:48;;;;;;;1.10;1.10;;;4.00;98.00;;;;;;5073900;28;21249;-68
2022/01/31 07:39:16;;;;;;;1.10;1.00;;;3.90;98.00;;;;;;5074132;28;20958;-68
2022/01/31 07:41:46;;;;;;;1.30;1.20;;;3.90;98.00;;;;;;5056627;28;21000;-69
2022/01/31 07:44:13;;;;;;;1.10;1.00;;;3.90;98.00;;;;;;5074026;28;20866;-69
2022/01/31 07:46:42;;;;;;;1.10;1.00;;;3.90;98.00;;;;;;5074158;28;20457;-68
2022/01/31 07:49:09;;;;;;;1.10;1.00;;;3.90;98.00;;;;;;5073939;28;20485;-67
2022/01/31 07:51:39;;;;;;;1.10;1.00;;;3.80;98.00;;;;;;5074142;28;20502;-68
2022/01/31 07:54:07;;;;;;;1.10;1.00;;;3.80;98.00;;;;;;5073880;28;20465;-68
2022/01/31 07:56:38;;;;;;;1.10;1.10;;;3.70;98.00;;;;;;5073841;28;20456;-68
2022/01/31 07:59:05;;;;;;;1.20;1.20;;;3.70;98.00;;;;;;5073972;28;21020;-67
2022/01/31 08:01:38;;;;;;;1.40;1.37;;;3.80;98.00;;;;;;5074239;28;20932;-68
2022/01/31 08:04:06;;;;;;;1.10;1.07;;;3.80;98.00;;;;;;5099526;28;20838;-67
2022/01/31 08:06:34;;;;;;;1.10;0.93;;;3.80;98.00;;;;;;5077199;28;20483;-66
2022/01/31 08:09:01;;;;;;;1.77;1.47;;;3.80;98.00;;;;;;5111610;28;20533;-68
2022/01/31 08:11:33;;;;;;;1.10;1.03;;;3.90;98.00;;;;;;5112245;28;20475;-68
2022/01/31 08:14:05;;;;;;;1.10;1.00;;;3.80;98.00;;;;;;5095207;28;20535;-68
2022/01/31 08:16:32;;;;;;;1.53;1.27;;;3.90;98.00;;;;;;5096174;28;20551;-68
2022/01/31 08:18:59;;;;;;;1.10;1.00;;;3.90;98.00;;;;;;5111206;28;20459;-68
2022/01/31 08:21:28;;;;;;;1.20;1.20;;;3.90;98.00;;;;;;5111467;28;20454;-68
2022/01/31 08:23:55;;;;;;;1.10;1.00;;;3.90;98.00;;;;;;5111403;28;20486;-68
2022/01/31 08:26:22;;;;;;;1.50;1.33;;;3.90;98.00;;;;;;5111004;28;20554;-68
2022/01/31 08:28:57;;;;;;;2.13;1.10;;;3.90;98.00;;;;;;5110177;28;21035;-70
2022/01/31 08:31:29;;;;;;;1.20;1.10;;;4.00;98.00;;;;;;5110641;28;20487;-71
2022/01/31 08:34:19;;;;;;;1.10;1.00;;;4.00;98.00;;;;;;5104174;28;20535;-70
2022/01/31 08:36:47;;;;;;;1.10;1.10;;;4.00;98.00;;;;;;5104276;28;20527;-68
2022/01/31 08:39:17;;;;;;;1.10;0.90;;;4.00;98.00;;;;;;5110674;28;20550;-68
2022/01/31 08:41:46;;;;;;;1.10;0.90;;;4.10;98.00;;;;;;5110841;28;20528;-67
2022/01/31 08:44:16;;;;;;;1.10;1.00;;;4.10;98.00;;;;;;5110712;28;20451;-68
2022/01/31 08:46:43;;;;;;;1.10;1.00;;;4.10;98.00;;;;;;5110417;28;20550;-67
2022/01/31 08:49:13;;;;;;;1.10;1.00;;;4.00;98.00;;;;;;5109360;28;20958;-69
2022/01/31 08:51:40;;;;;;;1.10;0.90;;;4.00;98.00;;;;;;5109803;28;20460;-70
2022/01/31 08:54:09;;;;;;;1.10;1.00;;;4.00;98.00;;;;;;5110293;28;20499;-68
2022/01/31 08:56:40;;;;;;;1.37;1.10;;;4.00;98.00;;;;;;5110556;28;20454;-67
2022/01/31 08:59:08;;;;;;;3.67;1.37;;;4.10;98.00;;;;;;5110747;28;20451;-71
2022/01/31 09:01:36;;;;;;;1.10;1.00;;;4.20;98.00;;;;;;5110797;28;20477;-70
2022/01/31 09:04:04;;;;;;;1.40;1.30;;;4.20;98.00;;;;;;5110425;28;20505;-68
2022/01/31 09:06:34;;;;;;;1.50;1.33;;;4.30;98.00;;;;;;5110229;28;20455;-71
2022/01/31 09:09:05;;;;;;;1.10;0.90;;;4.30;98.00;;;;;;5100269;28;20863;-69
2022/01/31 09:11:33;;;;;;;1.10;1.00;;;4.30;98.00;;;;;;5105885;28;20454;-71
2022/01/31 09:14:00;;;;;;;1.10;1.00;;;4.30;98.00;;;;;;5106421;28;20465;-71
2022/01/31 09:16:37;;;;;;;1.10;0.90;;;4.30;98.00;;;;;;5107883;28;20544;-71
2022/01/31 09:19:04;;;;;;;1.10;1.00;;;4.40;98.00;;;;;;5110126;28;20465;-71
2022/01/31 09:21:32;;;;;;;1.10;1.03;;;4.40;98.00;;;;;;5110293;28;20478;-68
2022/01/31 09:23:59;;;;;;;1.10;1.00;;;4.50;98.00;;;;;;5110085;28;20471;-68
2022/01/31 09:26:27;;;;;;;1.10;1.00;;;4.50;98.00;;;;;;5110109;28;20485;-69
2022/01/31 09:28:57;;;;;;;1.10;1.00;;;4.50;98.00;;;;;;5110152;28;20494;-69
2022/01/31 09:31:24;;;;;;;1.10;1.00;;;4.60;98.00;;;;;;5109707;28;20811;-68
2022/01/31 09:33:52;;;;;;;1.10;0.90;;;4.70;98.00;;;;;;5109850;28;20866;-69
2022/01/31 09:36:19;;;;;;;1.10;0.90;;;4.80;98.00;;;;;;5110146;28;20880;-69
2022/01/31 09:38:46;;;;;;;1.10;1.10;;;4.80;98.00;;;;;;5110138;28;20479;-69
2022/01/31 09:41:18;;;;;;;1.10;0.97;;;4.90;98.00;;;;;;5109368;28;20822;-73
2022/01/31 09:49:23;;;;;;;1.10;1.00;;;5.10;98.00;;;;;;5095224;28;20521;-69
2022/01/31 09:51:51;;;;;;;1.10;1.00;;;5.10;98.00;;;;;;5109581;28;20466;-69
2022/01/31 09:54:19;;;;;;;1.10;1.00;;;5.20;98.00;;;;;;5108756;28;21296;-70
2022/01/31 09:56:47;;;;;;;1.10;1.00;;;5.40;98.00;;;;;;5109666;28;20448;-71
2022/01/31 09:59:16;;;;;;;1.10;1.00;;;5.40;98.00;;;;;;5109565;28;20562;-70
2022/01/31 10:01:47;;;;;;;1.10;1.00;;;5.50;98.00;;;;;;5109386;28;20500;-71
2022/01/31 10:04:18;;;;;;;1.10;1.00;;;5.50;98.00;;;;;;5109003;28;20485;-70
2022/01/31 10:06:47;;;;;;;1.10;1.00;;;5.50;98.00;;;;;;5091612;28;20511;-70
2022/01/31 10:09:17;;;;;;;1.10;1.00;;;5.50;98.00;;;;;;5109402;28;20540;-71
2022/01/31 10:11:49;;;;;;;1.10;1.00;;;5.50;98.00;;;;;;5109053;28;20463;-71
2022/01/31 10:17:08;;;;;;;1.10;1.10;;;5.50;98.00;;;;;;5109363;28;20516;-69
2022/01/31 10:19:41;;;;;;;1.10;0.97;;;5.50;98.00;;;;;;5109144;28;20551;-70
2022/01/31 10:22:11;;;;;;;1.40;1.10;;;5.50;98.00;;;;;;5109226;28;20965;-70
2022/01/31 10:24:40;;;;;;;1.17;1.00;;;5.50;98.00;;;;;;5109304;28;20495;-70
2022/01/31 10:27:13;;;;;;;1.10;1.00;;;5.50;98.00;;;;;;5109261;28;20490;-69
2022/01/31 10:29:41;;;;;;;1.30;1.10;;;5.50;98.00;;;;;;5108703;28;20844;-70
2022/01/31 10:32:11;;;;;;;1.10;1.10;;;5.60;98.00;;;;;;5109358;28;21022;-69
2022/01/31 10:34:41;;;;;;;1.10;1.00;;;5.60;98.00;;;;;;5108654;28;20451;-70
2022/01/31 10:37:11;;;;;;;1.17;1.10;;;5.60;98.00;;;;;;5108578;28;20495;-70
2022/01/31 10:53:53;;;;;;;1.10;1.00;;;5.80;98.00;;;;;;5104617;28;20479;-71
2022/01/31 10:56:20;;;;;;;1.10;1.00;;;5.80;98.00;;;;;;5112262;28;20447;-68
2022/01/31 10:58:57;;;;;;;1.10;1.00;;;5.90;98.00;;;;;;5112071;28;20475;-71
2022/01/31 11:01:25;;;;;;;1.10;0.90;;;5.90;98.00;;;;;;5112417;28;20467;-70
2022/01/31 11:03:54;;;;;;;1.10;1.00;;;5.90;98.00;;;;;;5094376;28;20492;-69
2022/01/31 11:06:23;;;;;;;1.47;1.43;;;5.90;98.00;;;;;;5112490;28;20859;-69
2022/01/31 11:08:51;;;;;;;1.10;1.00;;;5.90;98.00;;;;;;5112210;28;20539;-70
2022/01/31 11:11:19;;;;;;;1.10;0.90;;;5.90;98.00;;;;;;5112258;28;20522;-70
2022/01/31 11:13:48;;;;;;;1.10;1.00;;;5.90;98.00;;;;;;5111591;28;20481;-69
2022/01/31 11:16:18;;;;;;;1.10;0.90;;;6.00;98.00;;;;;;5093832;28;20881;-70
2022/01/31 11:18:46;;;;;;;4.90;1.50;;;6.00;98.00;;;;;;5110885;28;20557;-70
2022/01/31 11:21:16;;;;;;;1.20;1.00;;;6.00;98.00;;;;;;5111987;28;20453;-70
2022/01/31 11:23:50;;;;;;;1.10;1.00;;;6.00;98.00;;;;;;5111838;28;20459;-70
2022/01/31 11:26:19;;;;;;;1.20;1.10;;;6.10;98.00;;;;;;5111705;28;21000;-70
2022/01/31 11:28:49;;;;;;;1.20;1.00;;;6.10;98.00;;;;;;5111632;28;20906;-69
2022/01/31 11:31:18;;;;;;;1.63;1.57;;;6.10;98.00;;;;;;5111708;28;20545;-70
2022/01/31 11:33:46;;;;;;;1.10;0.90;;;6.10;98.00;;;;;;5111449;28;20518;-69
2022/01/31 11:36:15;;;;;;;1.10;0.90;;;6.00;98.00;;;;;;5111596;28;21018;-70
2022/01/31 11:38:44;;;;;;;1.10;0.97;;;5.90;98.00;;;;;;5111538;28;20860;-70
2022/01/31 11:41:12;;;;;;;1.10;1.00;;;6.00;98.00;;;;;;5076278;28;20456;-69
2022/01/31 11:43:39;;;;;;;1.10;1.00;;;6.00;98.00;;;;;;5112890;28;20546;-70
2022/01/31 11:46:09;;;;;;;1.10;1.00;;;6.00;98.00;;;;;;5112772;28;20450;-70
2022/01/31 11:48:38;;;;;;;1.30;1.10;;;6.10;98.00;;;;;;5111296;28;20981;-69
2022/01/31 11:51:05;;;;;;;1.30;1.10;;;6.10;98.00;;;;;;5109231;28;20847;-68
2022/01/31 11:53:36;;;;;;;1.20;1.00;;;6.10;98.00;;;;;;5093297;28;20537;-68
2022/01/31 11:56:09;;;;;;;1.10;1.00;;;6.10;98.00;;;;;;5093317;28;20485;-70
2022/01/31 11:58:37;;;;;;;1.10;1.00;;;6.10;98.00;;;;;;5110966;28;20457;-69
2022/01/31 12:01:04;;;;;;;1.20;1.00;;;6.10;98.00;;;;;;5111360;28;20465;-69
2022/01/31 12:03:31;;;;;;;1.10;1.00;;;6.10;98.00;;;;;;5110272;28;20474;-68
2022/01/31 12:06:09;;;;;;;1.20;1.00;;;6.00;98.00;;;;;;5111170;28;20455;-69
2022/01/31 12:08:41;;;;;;;1.10;1.00;;;5.90;98.00;;;;;;5110846;28;20492;-70
2022/01/31 12:11:18;;;;;;;1.10;1.00;;;5.90;98.00;;;;;;5111287;28;20447;-69
2022/01/31 12:13:50;;;;;;;1.10;1.00;;;5.90;98.00;;;;;;5078752;28;20462;-69
2022/01/31 12:16:45;;;;;;;1.10;1.00;;;5.90;98.00;;;;;;5111022;28;20460;-70
2022/01/31 12:22:30;;;;;;;1.13;1.00;;;5.90;98.00;;;;;;5109162;28;20444;-71
2022/01/31 12:24:58;;;;;;;1.10;1.00;;;5.80;98.00;;;;;;5096907;28;20495;-70
2022/01/31 12:27:28;;;;;;;1.27;1.00;;;5.80;98.00;;;;;;5110888;28;20564;-69
2022/01/31 12:30:03;;;;;;;1.10;0.90;;;5.70;98.00;;;;;;5110610;28;20518;-70
2022/01/31 12:32:35;;;;;;;1.37;1.23;;;5.60;98.00;;;;;;5110361;28;20562;-71
2022/01/31 12:35:07;;;;;;;1.10;1.00;;;5.70;98.00;;;;;;5110642;28;20480;-69
2022/01/31 12:37:36;;;;;;;1.10;1.00;;;5.70;98.00;;;;;;5110442;28;20459;-70
2022/01/31 12:40:11;;;;;;;2.90;1.10;;;5.70;98.00;;;;;;5110415;28;20449;-70
2022/01/31 12:46:02;;;;;;;1.10;1.00;;;5.80;98.00;;;;;;5093906;28;20444;-69
2022/01/31 12:48:30;;;;;;;1.20;1.10;;;5.80;98.00;;;;;;5096543;28;20523;-70
2022/01/31 12:51:04;;;;;;;1.10;1.00;;;5.80;98.00;;;;;;5107888;28;20575;-70
2022/01/31 12:53:47;;;;;;;1.20;1.00;;;5.80;98.00;;;;;;5110147;28;20511;-70
2022/01/31 12:56:34;;;;;;;1.10;1.00;;;5.80;98.00;;;;;;5110084;28;20832;-69
2022/01/31 12:59:09;;;;;;;1.10;1.00;;;5.80;98.00;;;;;;5110212;28;20886;-70
2022/01/31 13:01:39;;;;;;;1.10;0.90;;;5.80;98.00;;;;;;5109220;28;20447;-69
2022/01/31 13:04:08;;;;;;;1.63;1.20;;;5.80;98.00;;;;;;5110286;28;20863;-70
2022/01/31 13:06:45;;;;;;;1.10;1.00;;;5.80;98.00;;;;;;5110255;28;20504;-70
2022/01/31 13:09:14;;;;;;;1.70;1.37;;;5.90;98.00;;;;;;5101310;28;20496;-69
2022/01/31 13:11:53;;;;;;;1.10;1.00;;;5.80;98.00;;;;;;5110505;28;20866;-70
2022/01/31 13:14:23;;;;;;;1.10;0.97;;;5.80;98.00;;;;;;5093179;28;20523;-69
2022/01/31 13:17:00;;;;;;;1.10;0.90;;;5.70;98.00;;;;;;5110906;28;20471;-69
2022/01/31 13:19:31;;;;;;;1.10;1.00;;;5.80;98.00;;;;;;5112081;28;20482;-68
2022/01/31 13:22:00;;;;;;;2.80;1.43;;;5.70;98.00;;;;;;5112303;28;20454;-68
2022/01/31 13:24:42;;;;;;;1.10;1.00;;;5.70;98.00;;;;;;5093915;28;20463;-68
2022/01/31 13:27:14;;;;;;;1.10;0.90;;;5.70;98.00;;;;;;5112130;28;20800;-68
2022/01/31 13:29:45;;;;;;;1.43;1.20;;;5.60;98.00;;;;;;5112048;28;20471;-68
2022/01/31 13:32:25;;;;;;;1.10;1.00;;;5.50;98.00;;;;;;5111838;28;20539;-69
2022/01/31 13:34:56;;;;;;;1.13;0.90;;;5.50;98.00;;;;;;5112336;28;20456;-68
2022/01/31 13:37:53;;;;;;;2.27;1.33;;;5.50;98.00;;;;;;5111963;28;20499;-68